地図

経路データ

SID SEASON NUMBER BASIN SUBBASIN NAME ISO_TIME NATURE LAT LON WMO_WIND WMO_PRES WMO_AGENCY TRACK_TYPE DIST2LAND LANDFALL IFLAG USA_AGENCY USA_ATCF_ID USA_LAT USA_LON USA_RECORD USA_STATUS USA_WIND USA_PRES USA_SSHS USA_R34_NE USA_R34_SE USA_R34_SW USA_R34_NW USA_R50_NE USA_R50_SE USA_R50_SW USA_R50_NW USA_R64_NE USA_R64_SE USA_R64_SW USA_R64_NW USA_POCI USA_ROCI USA_RMW USA_EYE TOKYO_LAT TOKYO_LON TOKYO_GRADE TOKYO_WIND TOKYO_PRES TOKYO_R50_DIR TOKYO_R50_LONG TOKYO_R50_SHORT TOKYO_R30_DIR TOKYO_R30_LONG TOKYO_R30_SHORT TOKYO_LAND CMA_LAT CMA_LON CMA_CAT CMA_WIND CMA_PRES HKO_LAT HKO_LON HKO_CAT HKO_WIND HKO_PRES NEWDELHI_LAT NEWDELHI_LON NEWDELHI_GRADE NEWDELHI_WIND NEWDELHI_PRES NEWDELHI_CI NEWDELHI_DP NEWDELHI_POCI REUNION_LAT REUNION_LON REUNION_TYPE REUNION_WIND REUNION_PRES REUNION_TNUM REUNION_CI REUNION_RMW REUNION_R34_NE REUNION_R34_SE REUNION_R34_SW REUNION_R34_NW REUNION_R50_NE REUNION_R50_SE REUNION_R50_SW REUNION_R50_NW REUNION_R64_NE REUNION_R64_SE REUNION_R64_SW REUNION_R64_NW BOM_LAT BOM_LON BOM_TYPE BOM_WIND BOM_PRES BOM_TNUM BOM_CI BOM_RMW BOM_R34_NE BOM_R34_SE BOM_R34_SW BOM_R34_NW BOM_R50_NE BOM_R50_SE BOM_R50_SW BOM_R50_NW BOM_R64_NE BOM_R64_SE BOM_R64_SW BOM_R64_NW BOM_ROCI BOM_POCI BOM_EYE BOM_POS_METHOD BOM_PRES_METHOD NADI_LAT NADI_LON NADI_CAT NADI_WIND NADI_PRES WELLINGTON_LAT WELLINGTON_LON WELLINGTON_WIND WELLINGTON_PRES DS824_LAT DS824_LON DS824_STAGE DS824_WIND DS824_PRES TD9636_LAT TD9636_LON TD9636_STAGE TD9636_WIND TD9636_PRES TD9635_LAT TD9635_LON TD9635_WIND TD9635_PRES TD9635_ROCI NEUMANN_LAT NEUMANN_LON NEUMANN_CLASS NEUMANN_WIND NEUMANN_PRES MLC_LAT MLC_LON MLC_CLASS MLC_WIND MLC_PRES USA_GUST BOM_GUST BOM_GUST_PER REUNION_GUST REUNION_GUST_PER USA_SEAHGT USA_SEARAD_NE USA_SEARAD_SE USA_SEARAD_SW USA_SEARAD_NW STORM_SPEED STORM_DIR
1982287N13091 1982 91 NI BB NOT_NAMED 1982-10-13 18:00:00 NR 13.4000 91.4000 main 418 418 O_____________ jtwc_io IO031982 13.4000 91.4000 25 -1 1 266
1982287N13091 1982 91 NI BB NOT_NAMED 1982-10-13 20:00:00 NR 13.3973 91.3525 main 418 426 P_________O___ IO031982 13.4960 91.2788 26 -1 13.2000 91.5000 1 25 3 291
1982287N13091 1982 91 NI BB NOT_NAMED 1982-10-13 21:00:00 NR 13.4468 91.2687 main 426 419 P_________P___ IO031982 13.5449 91.2075 27 -1 13.2997 91.3604 1 25 8 301
1982287N13091 1982 91 NI BB NOT_NAMED 1982-10-14 00:00:00 NR 13.6568 90.9101 main 438 438 O_________P___ jtwc_io IO031982 13.7000 90.9000 30 -1 13.5991 90.9235 1 28 9 299
1982287N13091 1982 91 NI BB NOT_NAMED 1982-10-14 02:00:00 NR 13.8073 90.5931 main 458 458 P_________O___ IO031982 13.8146 90.5861 30 -1 13.8000 90.6000 1 30 11 296
1982287N13091 1982 91 NI BB NOT_NAMED 1982-10-14 03:00:00 NR 13.8892 90.4131 main 471 471 P_________P___ IO031982 13.8776 90.4024 30 -1 13.9009 90.4238 1 30 12 295
1982287N13091 1982 91 NI BB NOT_NAMED 1982-10-14 06:00:00 NR 14.1488 89.8232 main 518 513 O_________P___ jtwc_io IO031982 14.1000 89.8000 30 -1 14.1977 89.8464 1 30 13 295
1982287N13091 1982 91 NI BB NOT_NAMED 1982-10-14 09:00:00 NR 14.4415 89.2128 main 565 562 P_________P___ IO031982 14.4150 89.2002 30 -1 14.4681 89.2254 1 30 13 295
1982287N13091 1982 91 NI BB NOT_NAMED 1982-10-14 12:00:00 NR 14.6950 88.6000 main 618 586 O_________P___ jtwc_io IO031982 14.7000 88.6000 30 -1 14.6900 88.6000 1 30 12 291
1982287N13091 1982 91 NI BB NOT_NAMED 1982-10-14 14:00:00 NR 14.8045 88.2099 main 586 578 P_________O___ IO031982 14.8090 88.2198 31 -1 14.8000 88.2000 1 30 11 285
1982287N13091 1982 91 NI BB NOT_NAMED 1982-10-14 15:00:00 NR 14.8403 88.0266 main 571 525 P_________P___ IO031982 14.8449 88.0348 32 -1 14.8358 88.0183 1 30 10 278
1982287N13091 1982 91 NI BB NOT_NAMED 1982-10-14 18:00:00 NR 14.8964 87.4976 main 525 490 O_________P___ jtwc_io IO031982 14.9000 87.5000 35 0 14.8929 87.4952 1 33 10 274
1982287N13091 1982 91 NI BB NOT_NAMED 1982-10-14 21:00:00 NR 14.9043 86.9950 main 490 458 P_________P___ IO031982 14.9073 86.9923 37 0 14.9012 86.9977 1 35 10 270
1982287N13091 1982 91 NI BB NOT_NAMED 1982-10-15 00:00:00 NR 14.8976 86.5083 main 458 440 O_________P___ jtwc_io IO031982 14.9000 86.5000 40 0 14.8952 86.5166 1 38 9 271
1982287N13091 1982 91 NI BB NOT_NAMED 1982-10-15 02:00:00 NR 14.9127 86.1806 main 440 425 P_________O___ IO031982 14.9254 86.1613 40 0 14.9000 86.2000 2 40 10 273
1982287N13091 1982 91 NI BB NOT_NAMED 1982-10-15 03:00:00 NR 14.9260 86.0129 main 425 380 P_________P___ IO031982 14.9424 85.9925 40 0 14.9096 86.0333 2 40 10 275
1982287N13091 1982 91 NI BB NOT_NAMED 1982-10-15 06:00:00 NR 14.9730 85.5183 main 380 349 O_________P___ jtwc_io IO031982 15.0000 85.5000 40 0 14.9460 85.5367 2 41 9 276
1982287N13091 1982 91 NI BB NOT_NAMED 1982-10-15 09:00:00 NR 15.0166 85.0438 main 339 297 P_________P___ IO031982 15.0274 85.0349 42 0 15.0059 85.0527 2 42 9 278
1982287N13091 1982 91 NI BB NOT_NAMED 1982-10-15 12:00:00 NR 15.1024 84.5955 main 297 265 O_________P___ jtwc_io IO031982 15.1000 84.6000 45 0 15.1047 84.5909 2 44 9 285
1982287N13091 1982 91 NI BB NOT_NAMED 1982-10-15 14:00:00 NR 15.1993 84.3127 main 265 249 P_________O___ IO031982 15.1987 84.3254 45 0 15.2000 84.3000 2 45 9 292
1982287N13091 1982 91 NI BB NOT_NAMED 1982-10-15 15:00:00 NR 15.2635 84.1765 main 249 202 P_________P___ IO031982 15.2624 84.1925 45 0 15.2646 84.1605 2 45 9 300
1982287N13091 1982 91 NI BB NOT_NAMED 1982-10-15 18:00:00 NR 15.4996 83.7817 main 202 147 O_________P___ jtwc_io IO031982 15.5000 83.8000 45 0 15.4993 83.7634 2 46 9 305
1982287N13091 1982 91 NI BB NOT_NAMED 1982-10-15 21:00:00 NR 15.7879 83.3918 main 147 93 P_________P___ IO031982 15.8075 83.3926 47 0 15.7684 83.3910 2 47 9 308
1982287N13091 1982 91 NI BB NOT_NAMED 1982-10-16 00:00:00 NR 16.0688 83.0170 main 93 69 O_________P___ jtwc_io IO031982 16.1000 83.0000 50 0 16.0376 83.0340 2 49 9 306
1982287N13091 1982 91 NI BB NOT_NAMED 1982-10-16 02:00:00 NR 16.2118 82.7793 main 69 54 P_________O___ IO031982 16.2236 82.7586 50 0 16.2000 82.8000 4 50 8 300
1982287N13091 1982 91 NI BB NOT_NAMED 1982-10-16 03:00:00 NR 16.2660 82.6594 main 54 22 P_________P___ IO031982 16.2724 82.6423 50 0 16.2595 82.6766 4 48 7 293
1982287N13091 1982 91 NI BB NOT_NAMED 1982-10-16 06:00:00 NR 16.4073 82.3053 main 22 0 O_________P___ jtwc_io IO031982 16.4000 82.3000 50 0 16.4147 82.3106 4 45 7 292
1982287N13091 1982 91 NI BB NOT_NAMED 1982-10-16 09:00:00 NR 16.5471 81.9488 main 0 0 P_________P___ IO031982 16.5425 81.9424 45 0 16.5517 81.9552 4 41 7 293
1982287N13091 1982 91 NI BB NOT_NAMED 1982-10-16 12:00:00 NR 16.6964 81.6077 main 0 0 O_________P___ jtwc_io IO031982 16.7000 81.6000 40 0 16.6928 81.6154 4 37 7 296
1982287N13091 1982 91 NI BB NOT_NAMED 1982-10-16 14:00:00 NR 16.8101 81.3958 main 0 0 P_________O___ IO031982 16.8235 81.3902 36 0 16.8000 81.4000 2 35 7 300
1982287N13091 1982 91 NI BB NOT_NAMED 1982-10-16 15:00:00 NR 16.8719 81.2937 main 0 0 P_________P___ IO031982 16.8901 81.2901 35 0 16.8598 81.2961 2 33 7 305
1982287N13091 1982 91 NI BB NOT_NAMED 1982-10-16 18:00:00 NR 17.0724 80.9970 main 0 0 O_________P___ jtwc_io IO031982 17.1000 81.0000 30 -1 17.0587 80.9955 2 28 7 305
1982287N13091 1982 91 NI BB NOT_NAMED 1982-10-16 20:00:00 NR 17.2000 80.8000 main 0 __________O___ IO031982 -1 17.2000 80.8000 1 25 7 304

IBTrACS Databaseについて

本データベースは、米国NOAAが公開する1842年以降の世界の熱帯低気圧のベストトラックデータアーカイブInternational Best Track Archive for Climate Stewardship (IBTrACS)を、ウェブで閲覧しやすい形式に変換したものです。

最終更新日:2021-12-03